Port Dufferin, Canada
Current Conditions -  °F | °C
As of 12:00 AM on Monday 22 Dec 2014 (Local Time) from CYHZ Reporting Station
Overcast Overcast  
Wind Chill: 28°   Ceiling: 1800
Heat Index: 28°   Visibility: 15mi
Dew Point: 23°   Wind: 3mph
Humidity: 80%   Direction: 40°NE
Pressure: 30.37"   Gusts: NA
Location:  44.92°N, 62.38°W
Report Text: CYHZ 220400Z 04003KT 15SM OVC018 M02/M05 A3037 RMK SC8 SLP290
Loading
Personal Weather Stations






























Interactive Weather Map New forecast layout! Learn more

10-Day Weather Forecast

Advertisements
Track Severe Weather on mobile